sensor_id;sensor_type;location;lat;lon;timestamp;temperature;humidity
5059;DHT22;2548;52.050;11.036;2022-12-10T00:01:07;-0.70;99.90
5059;DHT22;2548;52.050;11.036;2022-12-10T00:03:35;-0.70;99.90
5059;DHT22;2548;52.050;11.036;2022-12-10T00:06:04;-0.70;99.90
5059;DHT22;2548;52.050;11.036;2022-12-10T00:08:33;-0.70;99.90
5059;DHT22;2548;52.050;11.036;2022-12-10T00:11:04;-0.70;99.90
5059;DHT22;2548;52.050;11.036;2022-12-10T00:13:33;-0.60;99.90
5059;DHT22;2548;52.050;11.036;2022-12-10T00:16:01;-0.60;99.90
5059;DHT22;2548;52.050;11.036;2022-12-10T00:18:29;-0.50;99.90
5059;DHT22;2548;52.050;11.036;2022-12-10T00:20:56;-0.60;99.90
5059;DHT22;2548;52.050;11.036;2022-12-10T00:23:24;-0.60;99.90
5059;DHT22;2548;52.050;11.036;2022-12-10T00:25:51;-0.60;99.90
5059;DHT22;2548;52.050;11.036;2022-12-10T00:28:20;-0.60;99.90
5059;DHT22;2548;52.050;11.036;2022-12-10T00:30:48;-0.60;99.90
5059;DHT22;2548;52.050;11.036;2022-12-10T00:33:15;-0.70;99.90
5059;DHT22;2548;52.050;11.036;2022-12-10T00:35:42;-0.60;99.90
5059;DHT22;2548;52.050;11.036;2022-12-10T00:38:10;-0.60;99.90
5059;DHT22;2548;52.050;11.036;2022-12-10T00:40:37;-0.60;99.90
5059;DHT22;2548;52.050;11.036;2022-12-10T00:43:05;-0.50;99.90
5059;DHT22;2548;52.050;11.036;2022-12-10T00:45:33;-0.60;99.90
5059;DHT22;2548;52.050;11.036;2022-12-10T00:48:01;-0.50;99.90
5059;DHT22;2548;52.050;11.036;2022-12-10T00:50:28;-0.60;99.90
5059;DHT22;2548;52.050;11.036;2022-12-10T00:52:57;-0.50;99.90
5059;DHT22;2548;52.050;11.036;2022-12-10T00:55:24;-0.40;99.90
5059;DHT22;2548;52.050;11.036;2022-12-10T00:57:51;-0.50;99.90
5059;DHT22;2548;52.050;11.036;2022-12-10T01:00:19;-0.40;99.90
5059;DHT22;2548;52.050;11.036;2022-12-10T01:02:48;-0.50;99.90
5059;DHT22;2548;52.050;11.036;2022-12-10T01:05:17;-0.60;99.90
5059;DHT22;2548;52.050;11.036;2022-12-10T01:07:44;-0.50;99.90
5059;DHT22;2548;52.050;11.036;2022-12-10T01:10:12;-0.60;99.90
5059;DHT22;2548;52.050;11.036;2022-12-10T01:12:39;-0.60;99.90
5059;DHT22;2548;52.050;11.036;2022-12-10T01:15:07;-0.60;99.90
5059;DHT22;2548;52.050;11.036;2022-12-10T01:17:36;-0.60;99.90
5059;DHT22;2548;52.050;11.036;2022-12-10T01:20:05;-0.60;99.90
5059;DHT22;2548;52.050;11.036;2022-12-10T01:22:33;-0.50;99.90
5059;DHT22;2548;52.050;11.036;2022-12-10T01:25:00;-0.50;99.90
5059;DHT22;2548;52.050;11.036;2022-12-10T01:27:28;-0.50;99.90
5059;DHT22;2548;52.050;11.036;2022-12-10T01:29:55;-0.50;99.90
5059;DHT22;2548;52.050;11.036;2022-12-10T01:32:23;-0.50;99.90
5059;DHT22;2548;52.050;11.036;2022-12-10T01:34:50;-0.50;99.90
5059;DHT22;2548;52.050;11.036;2022-12-10T01:37:19;-0.50;99.90
5059;DHT22;2548;52.050;11.036;2022-12-10T01:39:47;-0.50;99.90
5059;DHT22;2548;52.050;11.036;2022-12-10T01:42:14;-0.50;99.90
5059;DHT22;2548;52.050;11.036;2022-12-10T01:45:07;-0.60;99.90
5059;DHT22;2548;52.050;11.036;2022-12-10T01:47:35;-0.60;99.90
5059;DHT22;2548;52.050;11.036;2022-12-10T01:50:04;-0.60;99.90
5059;DHT22;2548;52.050;11.036;2022-12-10T01:52:34;-0.70;99.90
5059;DHT22;2548;52.050;11.036;2022-12-10T01:55:06;-0.70;99.90
5059;DHT22;2548;52.050;11.036;2022-12-10T01:57:33;-0.70;99.90
5059;DHT22;2548;52.050;11.036;2022-12-10T02:00:03;-0.70;99.90
5059;DHT22;2548;52.050;11.036;2022-12-10T02:02:44;-0.70;99.90
5059;DHT22;2548;52.050;11.036;2022-12-10T02:05:22;-0.70;99.90
5059;DHT22;2548;52.050;11.036;2022-12-10T02:08:01;-0.70;99.90
5059;DHT22;2548;52.050;11.036;2022-12-10T02:10:42;-0.70;99.90
5059;DHT22;2548;52.050;11.036;2022-12-10T02:13:15;-0.70;99.90
5059;DHT22;2548;52.050;11.036;2022-12-10T02:15:49;-0.70;99.90
5059;DHT22;2548;52.050;11.036;2022-12-10T02:18:20;-0.60;99.90
5059;DHT22;2548;52.050;11.036;2022-12-10T02:20:51;-0.60;99.90
5059;DHT22;2548;52.050;11.036;2022-12-10T02:23:24;-0.60;99.90
5059;DHT22;2548;52.050;11.036;2022-12-10T02:25:56;-0.60;99.90
5059;DHT22;2548;52.050;11.036;2022-12-10T02:28:32;-0.60;99.90
5059;DHT22;2548;52.050;11.036;2022-12-10T02:31:04;-0.60;99.90
5059;DHT22;2548;52.050;11.036;2022-12-10T02:33:35;-0.60;99.90
5059;DHT22;2548;52.050;11.036;2022-12-10T02:36:04;-0.60;99.90
5059;DHT22;2548;52.050;11.036;2022-12-10T02:38:36;-0.60;99.90
5059;DHT22;2548;52.050;11.036;2022-12-10T02:41:07;-0.60;99.90
5059;DHT22;2548;52.050;11.036;2022-12-10T02:43:36;-0.60;99.90
5059;DHT22;2548;52.050;11.036;2022-12-10T02:46:06;-0.60;99.90
5059;DHT22;2548;52.050;11.036;2022-12-10T02:48:34;-0.60;99.90
5059;DHT22;2548;52.050;11.036;2022-12-10T02:51:02;-0.60;99.90
5059;DHT22;2548;52.050;11.036;2022-12-10T02:53:30;-0.60;99.90
5059;DHT22;2548;52.050;11.036;2022-12-10T02:56:09;-0.60;99.90
5059;DHT22;2548;52.050;11.036;2022-12-10T02:58:51;-0.60;99.90
5059;DHT22;2548;52.050;11.036;2022-12-10T03:01:28;-0.70;99.90
5059;DHT22;2548;52.050;11.036;2022-12-10T03:04:02;-0.60;99.90
5059;DHT22;2548;52.050;11.036;2022-12-10T03:06:36;-0.60;99.90
5059;DHT22;2548;52.050;11.036;2022-12-10T03:09:09;-0.60;99.90
5059;DHT22;2548;52.050;11.036;2022-12-10T03:11:40;-0.60;99.90
5059;DHT22;2548;52.050;11.036;2022-12-10T03:14:13;-0.70;99.90
5059;DHT22;2548;52.050;11.036;2022-12-10T03:16:44;-0.70;99.90
5059;DHT22;2548;52.050;11.036;2022-12-10T03:19:16;-0.70;99.90
5059;DHT22;2548;52.050;11.036;2022-12-10T03:21:46;-0.70;99.90
5059;DHT22;2548;52.050;11.036;2022-12-10T03:24:15;-0.70;99.90
5059;DHT22;2548;52.050;11.036;2022-12-10T03:26:45;-0.80;99.90
5059;DHT22;2548;52.050;11.036;2022-12-10T03:29:18;-0.80;99.90
5059;DHT22;2548;52.050;11.036;2022-12-10T03:31:50;-0.80;99.90
5059;DHT22;2548;52.050;11.036;2022-12-10T03:34:19;-0.70;99.90
5059;DHT22;2548;52.050;11.036;2022-12-10T03:36:47;-0.80;99.90
5059;DHT22;2548;52.050;11.036;2022-12-10T03:39:16;-0.70;99.90
5059;DHT22;2548;52.050;11.036;2022-12-10T03:41:44;-0.70;99.90
5059;DHT22;2548;52.050;11.036;2022-12-10T03:44:11;-0.70;99.90
5059;DHT22;2548;52.050;11.036;2022-12-10T03:46:39;-0.70;99.90
5059;DHT22;2548;52.050;11.036;2022-12-10T03:49:09;-0.70;99.90
5059;DHT22;2548;52.050;11.036;2022-12-10T03:51:37;-0.70;99.90
5059;DHT22;2548;52.050;11.036;2022-12-10T03:54:04;-0.70;99.90
5059;DHT22;2548;52.050;11.036;2022-12-10T03:56:32;-0.70;99.90
5059;DHT22;2548;52.050;11.036;2022-12-10T03:58:59;-0.80;99.90
5059;DHT22;2548;52.050;11.036;2022-12-10T04:01:26;-0.80;99.90
5059;DHT22;2548;52.050;11.036;2022-12-10T04:03:54;-0.70;99.90
5059;DHT22;2548;52.050;11.036;2022-12-10T04:06:23;-0.80;99.90
5059;DHT22;2548;52.050;11.036;2022-12-10T04:08:52;-0.80;99.90
5059;DHT22;2548;52.050;11.036;2022-12-10T04:11:20;-0.80;99.90
5059;DHT22;2548;52.050;11.036;2022-12-10T04:13:47;-0.80;99.90
5059;DHT22;2548;52.050;11.036;2022-12-10T04:16:34;-0.70;99.90
5059;DHT22;2548;52.050;11.036;2022-12-10T04:19:04;-0.80;99.90
5059;DHT22;2548;52.050;11.036;2022-12-10T04:21:35;-0.70;99.90
5059;DHT22;2548;52.050;11.036;2022-12-10T04:24:27;-0.70;99.90
5059;DHT22;2548;52.050;11.036;2022-12-10T04:27:16;-0.70;99.90
5059;DHT22;2548;52.050;11.036;2022-12-10T04:29:44;-0.70;99.90
5059;DHT22;2548;52.050;11.036;2022-12-10T04:32:12;-0.80;99.90
5059;DHT22;2548;52.050;11.036;2022-12-10T04:34:39;-0.80;99.90
5059;DHT22;2548;52.050;11.036;2022-12-10T04:37:09;-0.80;99.90
5059;DHT22;2548;52.050;11.036;2022-12-10T04:39:37;-0.70;99.90
5059;DHT22;2548;52.050;11.036;2022-12-10T04:42:06;-0.70;99.90
5059;DHT22;2548;52.050;11.036;2022-12-10T04:44:34;-0.60;99.90
5059;DHT22;2548;52.050;11.036;2022-12-10T04:47:02;-0.60;99.90
5059;DHT22;2548;52.050;11.036;2022-12-10T04:49:31;-0.70;99.90
5059;DHT22;2548;52.050;11.036;2022-12-10T04:51:58;-0.70;99.90
5059;DHT22;2548;52.050;11.036;2022-12-10T04:54:27;-0.70;99.90
5059;DHT22;2548;52.050;11.036;2022-12-10T04:56:55;-0.70;99.90
5059;DHT22;2548;52.050;11.036;2022-12-10T04:59:22;-0.80;99.90
5059;DHT22;2548;52.050;11.036;2022-12-10T05:01:50;-0.70;99.90
5059;DHT22;2548;52.050;11.036;2022-12-10T05:04:18;-0.70;99.90
5059;DHT22;2548;52.050;11.036;2022-12-10T05:06:48;-0.70;99.90
5059;DHT22;2548;52.050;11.036;2022-12-10T05:09:15;-0.70;99.90
5059;DHT22;2548;52.050;11.036;2022-12-10T05:11:44;-0.70;99.90
5059;DHT22;2548;52.050;11.036;2022-12-10T05:14:13;-0.70;99.90
5059;DHT22;2548;52.050;11.036;2022-12-10T05:16:41;-0.70;99.90
5059;DHT22;2548;52.050;11.036;2022-12-10T05:19:10;-0.80;99.90
5059;DHT22;2548;52.050;11.036;2022-12-10T05:21:37;-0.80;99.90
5059;DHT22;2548;52.050;11.036;2022-12-10T05:24:22;-0.80;99.90
5059;DHT22;2548;52.050;11.036;2022-12-10T05:26:51;-0.80;99.90
5059;DHT22;2548;52.050;11.036;2022-12-10T05:29:19;-0.80;99.90
5059;DHT22;2548;52.050;11.036;2022-12-10T05:31:46;-0.80;99.90
5059;DHT22;2548;52.050;11.036;2022-12-10T05:34:14;-0.90;99.90
5059;DHT22;2548;52.050;11.036;2022-12-10T05:36:41;-0.90;99.90
5059;DHT22;2548;52.050;11.036;2022-12-10T05:39:10;-0.90;99.90
5059;DHT22;2548;52.050;11.036;2022-12-10T05:41:39;-0.90;99.90
5059;DHT22;2548;52.050;11.036;2022-12-10T05:44:08;-0.90;99.90
5059;DHT22;2548;52.050;11.036;2022-12-10T05:46:36;-1.00;99.90
5059;DHT22;2548;52.050;11.036;2022-12-10T05:49:05;-0.90;99.90
5059;DHT22;2548;52.050;11.036;2022-12-10T05:51:35;-0.90;99.90
5059;DHT22;2548;52.050;11.036;2022-12-10T05:54:05;-0.90;99.90
5059;DHT22;2548;52.050;11.036;2022-12-10T05:56:33;-0.90;99.90
5059;DHT22;2548;52.050;11.036;2022-12-10T05:59:02;-0.90;99.90
5059;DHT22;2548;52.050;11.036;2022-12-10T06:01:33;-0.90;99.90
5059;DHT22;2548;52.050;11.036;2022-12-10T06:04:03;-0.90;99.90
5059;DHT22;2548;52.050;11.036;2022-12-10T06:06:32;-0.90;99.90
5059;DHT22;2548;52.050;11.036;2022-12-10T06:09:00;-0.90;99.90
5059;DHT22;2548;52.050;11.036;2022-12-10T06:11:28;-0.90;99.90
5059;DHT22;2548;52.050;11.036;2022-12-10T06:13:56;-0.90;99.90
5059;DHT22;2548;52.050;11.036;2022-12-10T06:16:25;-0.80;99.90
5059;DHT22;2548;52.050;11.036;2022-12-10T06:18:55;-0.80;99.90
5059;DHT22;2548;52.050;11.036;2022-12-10T06:21:23;-0.80;99.90
5059;DHT22;2548;52.050;11.036;2022-12-10T06:23:51;-0.80;99.90
5059;DHT22;2548;52.050;11.036;2022-12-10T06:26:20;-0.80;99.90
5059;DHT22;2548;52.050;11.036;2022-12-10T06:28:48;-0.90;99.90
5059;DHT22;2548;52.050;11.036;2022-12-10T06:31:15;-1.00;99.90
5059;DHT22;2548;52.050;11.036;2022-12-10T06:33:44;-1.00;99.90
5059;DHT22;2548;52.050;11.036;2022-12-10T06:36:14;-1.00;99.90
5059;DHT22;2548;52.050;11.036;2022-12-10T06:38:42;-1.00;99.90
5059;DHT22;2548;52.050;11.036;2022-12-10T06:41:11;-1.10;99.90
5059;DHT22;2548;52.050;11.036;2022-12-10T06:43:38;-1.10;99.90
5059;DHT22;2548;52.050;11.036;2022-12-10T06:46:07;-1.00;99.90
5059;DHT22;2548;52.050;11.036;2022-12-10T06:48:35;-1.00;99.90
5059;DHT22;2548;52.050;11.036;2022-12-10T06:51:04;-1.00;99.90
5059;DHT22;2548;52.050;11.036;2022-12-10T06:53:34;-1.10;99.90
5059;DHT22;2548;52.050;11.036;2022-12-10T06:56:03;-1.10;99.90
5059;DHT22;2548;52.050;11.036;2022-12-10T06:58:32;-1.00;99.90
5059;DHT22;2548;52.050;11.036;2022-12-10T07:01:02;-1.00;99.90
5059;DHT22;2548;52.050;11.036;2022-12-10T07:03:30;-0.90;99.90
5059;DHT22;2548;52.050;11.036;2022-12-10T07:05:58;-1.00;99.90
5059;DHT22;2548;52.050;11.036;2022-12-10T07:08:25;-1.00;99.90
5059;DHT22;2548;52.050;11.036;2022-12-10T07:10:54;-1.00;99.90
5059;DHT22;2548;52.050;11.036;2022-12-10T07:13:22;-1.00;99.90
5059;DHT22;2548;52.050;11.036;2022-12-10T07:15:49;-1.00;99.90
5059;DHT22;2548;52.050;11.036;2022-12-10T07:18:17;-1.10;99.90
5059;DHT22;2548;52.050;11.036;2022-12-10T07:20:44;-1.10;99.90
5059;DHT22;2548;52.050;11.036;2022-12-10T07:23:11;-1.00;99.90
5059;DHT22;2548;52.050;11.036;2022-12-10T07:25:39;-1.00;99.90
5059;DHT22;2548;52.050;11.036;2022-12-10T07:28:08;-0.90;99.90
5059;DHT22;2548;52.050;11.036;2022-12-10T07:30:35;-0.90;99.90
5059;DHT22;2548;52.050;11.036;2022-12-10T07:33:03;-0.80;99.90
5059;DHT22;2548;52.050;11.036;2022-12-10T07:35:31;-0.80;99.90
5059;DHT22;2548;52.050;11.036;2022-12-10T07:37:58;-0.80;99.90
5059;DHT22;2548;52.050;11.036;2022-12-10T07:40:25;-0.80;99.90
5059;DHT22;2548;52.050;11.036;2022-12-10T07:42:53;-0.80;99.90
5059;DHT22;2548;52.050;11.036;2022-12-10T07:45:22;-0.80;99.90
5059;DHT22;2548;52.050;11.036;2022-12-10T07:47:49;-0.80;99.90
5059;DHT22;2548;52.050;11.036;2022-12-10T07:50:17;-0.90;99.90
5059;DHT22;2548;52.050;11.036;2022-12-10T07:52:44;-0.80;99.90
5059;DHT22;2548;52.050;11.036;2022-12-10T07:55:11;-0.80;99.90
5059;DHT22;2548;52.050;11.036;2022-12-10T07:57:39;-0.80;99.90
5059;DHT22;2548;52.050;11.036;2022-12-10T08:00:08;-0.90;99.90
5059;DHT22;2548;52.050;11.036;2022-12-10T08:02:39;-0.80;99.90
5059;DHT22;2548;52.050;11.036;2022-12-10T08:05:08;-0.80;99.90
5059;DHT22;2548;52.050;11.036;2022-12-10T08:07:35;-0.80;99.90
5059;DHT22;2548;52.050;11.036;2022-12-10T08:10:04;-0.80;99.90
5059;DHT22;2548;52.050;11.036;2022-12-10T08:15:07;-0.80;99.90
5059;DHT22;2548;52.050;11.036;2022-12-10T08:17:35;-0.80;99.90
5059;DHT22;2548;52.050;11.036;2022-12-10T08:20:05;-0.90;99.90
5059;DHT22;2548;52.050;11.036;2022-12-10T08:22:33;-0.90;99.90
5059;DHT22;2548;52.050;11.036;2022-12-10T08:25:01;-0.90;99.90
5059;DHT22;2548;52.050;11.036;2022-12-10T08:27:29;-0.90;99.90
5059;DHT22;2548;52.050;11.036;2022-12-10T08:29:56;-0.90;99.90
5059;DHT22;2548;52.050;11.036;2022-12-10T08:32:23;-0.90;99.90
5059;DHT22;2548;52.050;11.036;2022-12-10T08:34:51;-1.00;99.90
5059;DHT22;2548;52.050;11.036;2022-12-10T08:37:20;-1.00;99.90
5059;DHT22;2548;52.050;11.036;2022-12-10T08:39:47;-1.00;99.90
5059;DHT22;2548;52.050;11.036;2022-12-10T08:42:15;-0.90;99.90
5059;DHT22;2548;52.050;11.036;2022-12-10T08:44:42;-0.90;99.90
5059;DHT22;2548;52.050;11.036;2022-12-10T08:47:10;-0.90;99.90
5059;DHT22;2548;52.050;11.036;2022-12-10T08:49:37;-1.00;99.90
5059;DHT22;2548;52.050;11.036;2022-12-10T08:52:05;-0.90;99.90
5059;DHT22;2548;52.050;11.036;2022-12-10T08:54:34;-0.90;99.90
5059;DHT22;2548;52.050;11.036;2022-12-10T08:57:02;-0.90;99.90
5059;DHT22;2548;52.050;11.036;2022-12-10T08:59:30;-1.00;99.90
5059;DHT22;2548;52.050;11.036;2022-12-10T09:01:57;-0.90;99.90
5059;DHT22;2548;52.050;11.036;2022-12-10T09:04:24;-0.90;99.90
5059;DHT22;2548;52.050;11.036;2022-12-10T09:06:52;-1.00;99.90
5059;DHT22;2548;52.050;11.036;2022-12-10T09:09:19;-0.90;99.90
5059;DHT22;2548;52.050;11.036;2022-12-10T09:11:48;-0.90;99.90
5059;DHT22;2548;52.050;11.036;2022-12-10T09:14:16;-0.90;99.90
5059;DHT22;2548;52.050;11.036;2022-12-10T09:16:43;-0.90;99.90
5059;DHT22;2548;52.050;11.036;2022-12-10T09:19:11;-0.90;99.90
5059;DHT22;2548;52.050;11.036;2022-12-10T09:21:38;-0.90;99.90
5059;DHT22;2548;52.050;11.036;2022-12-10T09:24:06;-0.90;99.90
5059;DHT22;2548;52.050;11.036;2022-12-10T09:26:33;-0.90;99.90
5059;DHT22;2548;52.050;11.036;2022-12-10T09:29:02;-1.00;99.90
5059;DHT22;2548;52.050;11.036;2022-12-10T09:31:30;-1.00;99.90
5059;DHT22;2548;52.050;11.036;2022-12-10T09:33:57;-0.90;99.90
5059;DHT22;2548;52.050;11.036;2022-12-10T09:36:25;-0.90;99.90
5059;DHT22;2548;52.050;11.036;2022-12-10T09:38:52;-0.90;99.90
5059;DHT22;2548;52.050;11.036;2022-12-10T09:41:52;-0.90;99.90
5059;DHT22;2548;52.050;11.036;2022-12-10T09:44:36;-1.00;99.90
5059;DHT22;2548;52.050;11.036;2022-12-10T09:47:08;-0.90;99.90
5059;DHT22;2548;52.050;11.036;2022-12-10T09:49:45;-0.90;99.90
5059;DHT22;2548;52.050;11.036;2022-12-10T09:52:16;-0.90;99.90
5059;DHT22;2548;52.050;11.036;2022-12-10T09:54:49;-0.90;99.90
5059;DHT22;2548;52.050;11.036;2022-12-10T09:57:20;-0.90;99.90
5059;DHT22;2548;52.050;11.036;2022-12-10T09:59:51;-0.80;99.90
5059;DHT22;2548;52.050;11.036;2022-12-10T10:02:24;-0.80;99.90
5059;DHT22;2548;52.050;11.036;2022-12-10T10:04:56;-0.80;99.90
5059;DHT22;2548;52.050;11.036;2022-12-10T10:07:27;-0.80;99.90
5059;DHT22;2548;52.050;11.036;2022-12-10T10:09:58;-0.80;99.90
5059;DHT22;2548;52.050;11.036;2022-12-10T10:12:27;-0.80;99.90
5059;DHT22;2548;52.050;11.036;2022-12-10T10:14:56;-0.80;99.90
5059;DHT22;2548;52.050;11.036;2022-12-10T10:17:28;-0.80;99.90
5059;DHT22;2548;52.050;11.036;2022-12-10T10:19:59;-0.70;99.90
5059;DHT22;2548;52.050;11.036;2022-12-10T10:22:27;-0.70;99.90
5059;DHT22;2548;52.050;11.036;2022-12-10T10:24:56;-0.70;99.90
5059;DHT22;2548;52.050;11.036;2022-12-10T10:27:30;-0.70;99.90
5059;DHT22;2548;52.050;11.036;2022-12-10T10:30:03;-0.80;99.90
5059;DHT22;2548;52.050;11.036;2022-12-10T10:32:46;-0.70;99.90
5059;DHT22;2548;52.050;11.036;2022-12-10T10:35:27;-0.80;99.90
5059;DHT22;2548;52.050;11.036;2022-12-10T10:37:58;-0.80;99.90
5059;DHT22;2548;52.050;11.036;2022-12-10T10:40:30;-0.80;99.90
5059;DHT22;2548;52.050;11.036;2022-12-10T10:42:59;-0.70;99.90
5059;DHT22;2548;52.050;11.036;2022-12-10T10:45:35;-0.70;99.90
5059;DHT22;2548;52.050;11.036;2022-12-10T10:48:08;-0.70;99.90
5059;DHT22;2548;52.050;11.036;2022-12-10T10:50:39;-0.70;99.90
5059;DHT22;2548;52.050;11.036;2022-12-10T10:53:31;-0.80;99.90
5059;DHT22;2548;52.050;11.036;2022-12-10T10:56:05;-0.70;99.90
5059;DHT22;2548;52.050;11.036;2022-12-10T10:58:35;-0.70;99.90
5059;DHT22;2548;52.050;11.036;2022-12-10T11:01:06;-0.80;99.90
5059;DHT22;2548;52.050;11.036;2022-12-10T11:03:35;-0.80;99.90
5059;DHT22;2548;52.050;11.036;2022-12-10T11:06:06;-0.80;99.90
5059;DHT22;2548;52.050;11.036;2022-12-10T11:08:37;-0.70;99.90
5059;DHT22;2548;52.050;11.036;2022-12-10T11:11:09;-0.80;99.90
5059;DHT22;2548;52.050;11.036;2022-12-10T11:13:38;-0.80;99.90
5059;DHT22;2548;52.050;11.036;2022-12-10T11:16:16;-0.80;99.90
5059;DHT22;2548;52.050;11.036;2022-12-10T11:18:54;-0.80;99.90
5059;DHT22;2548;52.050;11.036;2022-12-10T11:21:22;-0.80;99.90
5059;DHT22;2548;52.050;11.036;2022-12-10T11:23:53;-0.80;99.90
5059;DHT22;2548;52.050;11.036;2022-12-10T11:26:31;-0.70;99.90
5059;DHT22;2548;52.050;11.036;2022-12-10T11:29:08;-0.70;99.90
5059;DHT22;2548;52.050;11.036;2022-12-10T11:31:47;-0.70;99.90
5059;DHT22;2548;52.050;11.036;2022-12-10T11:34:20;-0.60;99.90
5059;DHT22;2548;52.050;11.036;2022-12-10T11:36:59;-0.60;99.90
5059;DHT22;2548;52.050;11.036;2022-12-10T11:39:48;-0.60;99.90
5059;DHT22;2548;52.050;11.036;2022-12-10T11:42:23;-0.60;99.90
5059;DHT22;2548;52.050;11.036;2022-12-10T11:44:59;-0.60;99.90
5059;DHT22;2548;52.050;11.036;2022-12-10T11:47:46;-0.60;99.90
5059;DHT22;2548;52.050;11.036;2022-12-10T11:50:26;-0.60;99.90
5059;DHT22;2548;52.050;11.036;2022-12-10T11:53:13;-0.60;99.90
5059;DHT22;2548;52.050;11.036;2022-12-10T11:55:49;-0.60;99.90
5059;DHT22;2548;52.050;11.036;2022-12-10T11:58:39;-0.60;99.90
5059;DHT22;2548;52.050;11.036;2022-12-10T12:01:16;-0.60;99.90
5059;DHT22;2548;52.050;11.036;2022-12-10T12:04:03;-0.70;99.90
5059;DHT22;2548;52.050;11.036;2022-12-10T12:06:57;-0.70;99.90
5059;DHT22;2548;52.050;11.036;2022-12-10T12:09:32;-0.70;99.90
5059;DHT22;2548;52.050;11.036;2022-12-10T12:12:13;-0.70;99.90
5059;DHT22;2548;52.050;11.036;2022-12-10T12:14:45;-0.70;99.90
5059;DHT22;2548;52.050;11.036;2022-12-10T12:17:18;-0.70;99.90
5059;DHT22;2548;52.050;11.036;2022-12-10T12:19:51;-0.70;99.90
5059;DHT22;2548;52.050;11.036;2022-12-10T12:22:23;-0.70;99.90
5059;DHT22;2548;52.050;11.036;2022-12-10T12:24:54;-0.60;99.90
5059;DHT22;2548;52.050;11.036;2022-12-10T12:27:27;-0.60;99.90
5059;DHT22;2548;52.050;11.036;2022-12-10T12:30:04;-0.70;99.90
5059;DHT22;2548;52.050;11.036;2022-12-10T12:32:40;-0.70;99.90
5059;DHT22;2548;52.050;11.036;2022-12-10T12:35:17;-0.70;99.90
5059;DHT22;2548;52.050;11.036;2022-12-10T12:37:50;-0.70;99.90
5059;DHT22;2548;52.050;11.036;2022-12-10T12:40:27;-0.70;99.90
5059;DHT22;2548;52.050;11.036;2022-12-10T12:42:58;-0.60;99.90
5059;DHT22;2548;52.050;11.036;2022-12-10T12:45:39;-0.60;99.90
5059;DHT22;2548;52.050;11.036;2022-12-10T12:48:17;-0.60;99.90
5059;DHT22;2548;52.050;11.036;2022-12-10T12:50:53;-0.60;99.90
5059;DHT22;2548;52.050;11.036;2022-12-10T12:53:22;-0.60;99.90
5059;DHT22;2548;52.050;11.036;2022-12-10T12:55:57;-0.60;99.90
5059;DHT22;2548;52.050;11.036;2022-12-10T12:58:34;-0.60;99.90
5059;DHT22;2548;52.050;11.036;2022-12-10T13:01:12;-0.60;99.90
5059;DHT22;2548;52.050;11.036;2022-12-10T13:03:41;-0.60;99.90
5059;DHT22;2548;52.050;11.036;2022-12-10T13:06:20;-0.60;99.90
5059;DHT22;2548;52.050;11.036;2022-12-10T13:08:53;-0.50;99.90
5059;DHT22;2548;52.050;11.036;2022-12-10T13:11:34;-0.60;99.90
5059;DHT22;2548;52.050;11.036;2022-12-10T13:14:15;-0.50;99.90
5059;DHT22;2548;52.050;11.036;2022-12-10T13:16:58;-0.50;99.90
5059;DHT22;2548;52.050;11.036;2022-12-10T13:19:29;-0.60;99.90
5059;DHT22;2548;52.050;11.036;2022-12-10T13:22:07;-0.50;99.90
5059;DHT22;2548;52.050;11.036;2022-12-10T13:25:05;-0.60;99.90
5059;DHT22;2548;52.050;11.036;2022-12-10T13:27:37;-0.60;99.90
5059;DHT22;2548;52.050;11.036;2022-12-10T13:30:31;-0.60;99.90
5059;DHT22;2548;52.050;11.036;2022-12-10T13:33:19;-0.60;99.90
5059;DHT22;2548;52.050;11.036;2022-12-10T13:35:56;-0.60;99.90
5059;DHT22;2548;52.050;11.036;2022-12-10T13:38:26;-0.60;99.90
5059;DHT22;2548;52.050;11.036;2022-12-10T13:41:00;-0.70;99.90
5059;DHT22;2548;52.050;11.036;2022-12-10T13:43:58;-0.70;99.90
5059;DHT22;2548;52.050;11.036;2022-12-10T13:46:53;-0.70;99.90
5059;DHT22;2548;52.050;11.036;2022-12-10T13:49:24;-0.70;99.90
5059;DHT22;2548;52.050;11.036;2022-12-10T13:51:55;-0.80;99.90
5059;DHT22;2548;52.050;11.036;2022-12-10T13:57:37;-0.80;99.90
5059;DHT22;2548;52.050;11.036;2022-12-10T14:00:12;-0.80;99.90
5059;DHT22;2548;52.050;11.036;2022-12-10T14:02:54;-0.80;99.90
5059;DHT22;2548;52.050;11.036;2022-12-10T14:08:18;-0.70;99.90
5059;DHT22;2548;52.050;11.036;2022-12-10T14:10:48;-0.70;99.90
5059;DHT22;2548;52.050;11.036;2022-12-10T14:13:20;-0.70;99.90
5059;DHT22;2548;52.050;11.036;2022-12-10T14:15:54;-0.70;99.90
5059;DHT22;2548;52.050;11.036;2022-12-10T14:18:23;-0.70;99.90
5059;DHT22;2548;52.050;11.036;2022-12-10T14:20:52;-0.70;99.90
5059;DHT22;2548;52.050;11.036;2022-12-10T14:23:25;-0.70;99.90
5059;DHT22;2548;52.050;11.036;2022-12-10T14:26:11;-0.70;99.90
5059;DHT22;2548;52.050;11.036;2022-12-10T14:28:41;-0.70;99.90
5059;DHT22;2548;52.050;11.036;2022-12-10T14:31:13;-0.70;99.90
5059;DHT22;2548;52.050;11.036;2022-12-10T14:33:44;-0.70;99.90
5059;DHT22;2548;52.050;11.036;2022-12-10T14:36:17;-0.70;99.90
5059;DHT22;2548;52.050;11.036;2022-12-10T14:38:47;-0.70;99.90
5059;DHT22;2548;52.050;11.036;2022-12-10T14:41:20;-0.70;99.90
5059;DHT22;2548;52.050;11.036;2022-12-10T14:43:49;-0.70;99.90
5059;DHT22;2548;52.050;11.036;2022-12-10T14:46:18;-0.70;99.90
5059;DHT22;2548;52.050;11.036;2022-12-10T14:48:50;-0.80;99.90
5059;DHT22;2548;52.050;11.036;2022-12-10T14:51:20;-0.80;99.90
5059;DHT22;2548;52.050;11.036;2022-12-10T14:53:50;-0.90;99.90
5059;DHT22;2548;52.050;11.036;2022-12-10T14:56:25;-0.80;99.90
5059;DHT22;2548;52.050;11.036;2022-12-10T14:58:57;-0.90;99.90
5059;DHT22;2548;52.050;11.036;2022-12-10T15:01:29;-0.80;99.90
5059;DHT22;2548;52.050;11.036;2022-12-10T15:03:59;-0.80;99.90
5059;DHT22;2548;52.050;11.036;2022-12-10T15:06:31;-0.80;99.90
5059;DHT22;2548;52.050;11.036;2022-12-10T15:09:00;-0.90;99.90
5059;DHT22;2548;52.050;11.036;2022-12-10T15:11:29;-0.90;99.90
5059;DHT22;2548;52.050;11.036;2022-12-10T15:13:59;-0.90;99.90
5059;DHT22;2548;52.050;11.036;2022-12-10T15:16:38;-0.90;99.90
5059;DHT22;2548;52.050;11.036;2022-12-10T15:19:08;-0.90;99.90
5059;DHT22;2548;52.050;11.036;2022-12-10T15:21:41;-1.00;99.90
5059;DHT22;2548;52.050;11.036;2022-12-10T15:24:15;-0.90;99.90
5059;DHT22;2548;52.050;11.036;2022-12-10T15:26:46;-0.90;99.90
5059;DHT22;2548;52.050;11.036;2022-12-10T15:29:29;-0.90;99.90
5059;DHT22;2548;52.050;11.036;2022-12-10T15:31:58;-0.90;99.90
5059;DHT22;2548;52.050;11.036;2022-12-10T15:34:28;-0.90;99.90
5059;DHT22;2548;52.050;11.036;2022-12-10T15:37:00;-0.80;99.90
5059;DHT22;2548;52.050;11.036;2022-12-10T15:39:30;-0.90;99.90
5059;DHT22;2548;52.050;11.036;2022-12-10T15:42:05;-0.90;99.90
5059;DHT22;2548;52.050;11.036;2022-12-10T15:44:37;-1.00;99.90
5059;DHT22;2548;52.050;11.036;2022-12-10T15:47:12;-1.00;99.90
5059;DHT22;2548;52.050;11.036;2022-12-10T15:49:42;-1.00;99.90
5059;DHT22;2548;52.050;11.036;2022-12-10T15:52:11;-1.10;99.90
5059;DHT22;2548;52.050;11.036;2022-12-10T15:54:41;-1.10;99.90
5059;DHT22;2548;52.050;11.036;2022-12-10T15:57:13;-1.10;99.90
5059;DHT22;2548;52.050;11.036;2022-12-10T15:59:41;-1.10;99.90
5059;DHT22;2548;52.050;11.036;2022-12-10T16:02:24;-1.10;99.90
5059;DHT22;2548;52.050;11.036;2022-12-10T16:04:52;-1.10;99.90
5059;DHT22;2548;52.050;11.036;2022-12-10T16:07:20;-1.10;99.90
5059;DHT22;2548;52.050;11.036;2022-12-10T16:09:47;-1.20;99.90
5059;DHT22;2548;52.050;11.036;2022-12-10T16:12:17;-1.20;99.90
5059;DHT22;2548;52.050;11.036;2022-12-10T16:14:48;-1.20;99.90
5059;DHT22;2548;52.050;11.036;2022-12-10T16:17:16;-1.20;99.90
5059;DHT22;2548;52.050;11.036;2022-12-10T16:19:45;-1.20;99.90